Time;durP1;ratioP1;P1;durP2;ratioP2;P2;SDS_P1;SDS_P2;PMS_P1;PMS_P2;Temp;Humidity;BMP_temperature;BMP_pressure;BME280_temperature;BME280_humidity;BME280_pressure;Samples;Min_cycle;Max_cycle;Signal;HPM_P1;HPM_P2
2022/12/08 11:37:08;;;;;;;;;;;18.70;52.60;;;;;;3289573;26;19928;-64
2022/12/08 11:39:35;;;;;;;;;;;18.60;52.90;;;;;;5065258;28;19929;-64
2022/12/08 11:42:02;;;;;;;;;;;18.70;53.10;;;;;;5064967;28;19912;-64
2022/12/08 11:44:33;;;;;;;;;;;18.60;52.80;;;;;;5069614;28;20362;-64
2022/12/08 11:47:26;;;;;;;;;;;18.70;54.00;;;;;;5051203;28;19912;-64
2022/12/08 11:49:55;;;;;;;;;;;18.60;52.50;;;;;;5065477;28;19912;-65
2022/12/08 11:52:54;;;;;;;;;;;18.60;52.70;;;;;;5054523;28;19985;-65
2022/12/08 11:55:27;;;;;;;;;;;18.60;52.20;;;;;;5035535;28;19968;-64
2022/12/08 11:57:53;;;;;;;;;;;18.60;52.50;;;;;;5063704;28;19912;-65
2022/12/08 12:00:20;;;;;;;;;;;18.50;52.50;;;;;;5051325;28;20336;-64
2022/12/08 12:02:51;;;;;;;;;;;18.60;52.00;;;;;;5052375;28;20278;-64
2022/12/08 12:05:29;;;;;;;;;;;18.50;52.40;;;;;;5036856;28;19931;-63
2022/12/08 12:08:15;;;;;;;;;;;18.50;52.40;;;;;;5053928;28;20316;-64
2022/12/08 12:10:54;;;;;;;;;;;18.60;52.60;;;;;;5070562;28;19961;-64
2022/12/08 12:13:24;;;;;;;;;;;18.60;52.10;;;;;;5081964;28;20440;-65
2022/12/08 12:16:06;;;;;;;;;;;18.60;53.10;;;;;;5070202;28;19921;-64
2022/12/08 12:18:34;;;;;;;;;;;18.50;53.40;;;;;;5071553;28;20282;-64
2022/12/08 12:21:01;;;;;;;;;;;18.60;52.80;;;;;;5051524;28;19951;-65
2022/12/08 12:23:35;;;;;;;;;;;18.50;52.80;;;;;;5071818;28;20413;-64
2022/12/08 12:26:02;;;;;;;;;;;18.50;53.30;;;;;;5070238;28;20251;-65
2022/12/08 12:28:30;;;;;;;;;;;18.50;53.70;;;;;;5053747;28;19915;-64
2022/12/08 12:30:58;;;;;;;;;;;18.50;53.50;;;;;;5054057;28;19940;-64
2022/12/08 12:33:25;;;;;;;;;;;18.50;53.50;;;;;;5053031;28;19924;-65
2022/12/08 12:35:51;;;;;;;;;;;18.50;53.70;;;;;;5070581;28;19909;-64
2022/12/08 12:39:07;;;;;;;;;;;18.50;54.00;;;;;;5073413;28;20025;-65
2022/12/08 12:41:06;;;;;;;;;;;18.50;54.40;;;;;;5067378;28;20370;-65
2022/12/08 12:43:36;;;;;;;;;;;18.50;54.10;;;;;;5075972;28;19908;-64
2022/12/08 12:46:32;;;;;;;;;;;18.50;54.80;;;;;;5058070;28;19916;-64
2022/12/08 12:49:18;;;;;;;;;;;18.40;55.50;;;;;;5061778;28;19915;-64
2022/12/08 12:51:45;;;;;;;;;;;18.40;54.60;;;;;;5071130;28;20003;-65
2022/12/08 12:54:37;;;;;;;;;;;18.50;55.20;;;;;;5074772;28;20397;-64
2022/12/08 12:57:04;;;;;;;;;;;18.40;54.00;;;;;;5072349;28;19912;-64
2022/12/08 12:59:31;;;;;;;;;;;18.40;53.40;;;;;;5082161;28;20370;-64
2022/12/08 13:01:57;;;;;;;;;;;18.40;53.30;;;;;;5074911;28;19909;-64
2022/12/08 13:04:31;;;;;;;;;;;18.40;53.90;;;;;;5052320;28;19917;-64
2022/12/08 13:06:57;;;;;;;;;;;18.50;53.90;;;;;;5074691;28;19916;-65
2022/12/08 13:09:32;;;;;;;;;;;18.50;53.10;;;;;;5055141;28;19924;-64
2022/12/08 13:12:00;;;;;;;;;;;18.40;53.70;;;;;;5068958;28;19919;-64
2022/12/08 13:14:28;;;;;;;;;;;18.40;53.80;;;;;;5064688;28;19928;-65
2022/12/08 13:16:55;;;;;;;;;;;18.50;53.80;;;;;;5079580;28;19944;-64
2022/12/08 13:19:21;;;;;;;;;;;18.50;54.40;;;;;;5090011;28;20283;-65
2022/12/08 13:21:48;;;;;;;;;;;18.40;54.70;;;;;;5062597;28;19939;-65
2022/12/08 13:24:24;;;;;;;;;;;18.40;54.60;;;;;;5056761;28;19908;-65
2022/12/08 13:27:03;;;;;;;;;;;18.40;55.20;;;;;;5047768;28;20374;-65
2022/12/08 13:29:30;;;;;;;;;;;18.40;55.10;;;;;;5065424;28;19994;-65
2022/12/08 13:32:00;;;;;;;;;;;18.30;55.30;;;;;;5072752;28;19912;-64
2022/12/08 13:34:35;;;;;;;;;;;18.30;55.80;;;;;;5078212;28;19966;-64
2022/12/08 13:37:02;;;;;;;;;;;18.30;56.20;;;;;;5064854;28;19924;-65
2022/12/08 13:39:44;;;;;;;;;;;18.30;56.10;;;;;;5074134;28;19966;-65
2022/12/08 13:42:13;;;;;;;;;;;18.20;55.90;;;;;;5047183;28;20007;-65
2022/12/08 13:44:42;;;;;;;;;;;18.30;55.90;;;;;;5073809;28;19912;-64
2022/12/08 13:47:14;;;;;;;;;;;18.20;56.30;;;;;;5043028;28;19962;-65
2022/12/08 13:49:49;;;;;;;;;;;18.20;56.00;;;;;;5055865;28;20057;-64
2022/12/08 13:52:21;;;;;;;;;;;18.20;56.60;;;;;;5061226;28;19916;-65
2022/12/08 13:54:47;;;;;;;;;;;18.20;56.50;;;;;;5056632;28;20333;-64
2022/12/08 13:57:33;;;;;;;;;;;18.10;56.70;;;;;;5073985;28;19908;-65
2022/12/08 14:00:04;;;;;;;;;;;18.10;56.70;;;;;;5047294;28;20014;-65
2022/12/08 14:02:38;;;;;;;;;;;18.10;56.40;;;;;;5054770;28;19912;-65
2022/12/08 14:05:05;;;;;;;;;;;18.10;56.30;;;;;;5049122;28;19909;-65
2022/12/08 14:07:32;;;;;;;;;;;18.20;56.40;;;;;;5074850;28;19912;-65
2022/12/08 14:09:59;;;;;;;;;;;18.20;56.20;;;;;;5055301;28;19912;-65
2022/12/08 14:12:29;;;;;;;;;;;18.10;56.50;;;;;;5081689;28;20258;-65
2022/12/08 14:15:05;;;;;;;;;;;18.10;56.30;;;;;;5055790;28;19968;-65
2022/12/08 14:17:32;;;;;;;;;;;18.10;56.20;;;;;;5055380;28;19912;-65
2022/12/08 14:20:05;;;;;;;;;;;18.10;56.80;;;;;;5055272;28;19908;-65
2022/12/08 14:22:32;;;;;;;;;;;18.10;56.20;;;;;;5073876;28;19908;-65
2022/12/08 14:24:59;;;;;;;;;;;18.20;57.30;;;;;;5062372;28;20321;-65
2022/12/08 14:27:26;;;;;;;;;;;18.10;59.60;;;;;;5073409;28;20065;-65
2022/12/08 14:29:53;;;;;;;;;;;18.10;61.10;;;;;;5056620;28;19916;-64
2022/12/08 14:32:42;;;;;;;;;;;18.00;61.90;;;;;;5055796;28;19916;-65
2022/12/08 14:35:08;;;;;;;;;;;17.90;62.40;;;;;;5073684;28;19920;-65
2022/12/08 14:37:40;;;;;;;;;;;17.80;62.50;;;;;;5072793;28;19960;-65
2022/12/08 14:40:15;;;;;;;;;;;17.70;62.50;;;;;;5073101;28;19908;-65
2022/12/08 14:42:43;;;;;;;;;;;17.70;62.50;;;;;;5055157;28;19908;-65
2022/12/08 14:45:10;;;;;;;;;;;17.70;62.60;;;;;;5052942;28;19908;-65
2022/12/08 14:47:37;;;;;;;;;;;17.60;62.50;;;;;;5054957;28;19923;-65
2022/12/08 14:50:04;;;;;;;;;;;17.60;62.80;;;;;;5055857;28;19948;-65
2022/12/08 14:52:30;;;;;;;;;;;17.60;63.20;;;;;;5073327;28;20009;-64
2022/12/08 14:54:57;;;;;;;;;;;17.60;62.80;;;;;;5054615;28;19927;-64
2022/12/08 14:57:24;;;;;;;;;;;17.70;63.00;;;;;;5054531;28;19912;-65
2022/12/08 14:59:51;;;;;;;;;;;17.60;62.90;;;;;;5054848;28;19913;-64
2022/12/08 15:02:21;;;;;;;;;;;17.60;63.00;;;;;;5074937;28;19916;-65
2022/12/08 15:04:49;;;;;;;;;;;17.50;63.00;;;;;;5078592;28;19913;-65
2022/12/08 15:19:30;;;;;;;;;;;17.40;64.50;;;;;;5086282;28;20404;-65
2022/12/08 15:22:07;;;;;;;;;;;17.30;64.40;;;;;;5076224;28;20370;-65
2022/12/08 15:24:34;;;;;;;;;;;17.30;65.00;;;;;;5067160;28;19927;-65
2022/12/08 15:27:01;;;;;;;;;;;17.30;64.60;;;;;;5080398;28;19959;-65
2022/12/08 15:29:28;;;;;;;;;;;17.30;64.50;;;;;;5079170;28;19951;-65
2022/12/08 15:31:55;;;;;;;;;;;17.30;64.40;;;;;;5108654;28;19908;-65
2022/12/08 15:34:22;;;;;;;;;;;17.30;64.00;;;;;;5082275;28;20070;-64
2022/12/08 15:36:49;;;;;;;;;;;17.30;64.10;;;;;;5092924;28;19939;-64
2022/12/08 15:39:30;;;;;;;;;;;17.30;64.40;;;;;;5087299;28;19908;-65
2022/12/08 15:41:57;;;;;;;;;;;17.30;64.00;;;;;;5108750;28;19916;-65
2022/12/08 15:44:24;;;;;;;;;;;17.30;64.10;;;;;;5097484;28;19943;-65
2022/12/08 15:46:50;;;;;;;;;;;17.40;64.00;;;;;;5092856;28;19908;-65
2022/12/08 15:49:17;;;;;;;;;;;17.30;64.60;;;;;;5091118;28;19954;-65
2022/12/08 15:51:44;;;;;;;;;;;17.30;65.20;;;;;;5094622;28;19920;-65
2022/12/08 15:54:11;;;;;;;;;;;17.30;65.20;;;;;;5107540;28;20015;-65
2022/12/08 15:56:45;;;;;;;;;;;17.30;65.10;;;;;;5096749;28;20384;-65
2022/12/08 15:59:15;;;;;;;;;;;17.40;65.30;;;;;;5095949;28;19908;-65
2022/12/08 16:01:42;;;;;;;;;;;17.30;65.70;;;;;;5107546;28;19909;-65
2022/12/08 16:04:10;;;;;;;;;;;17.30;66.10;;;;;;5095696;28;20007;-65
2022/12/08 16:06:38;;;;;;;;;;;17.30;66.50;;;;;;5109801;28;19912;-65
2022/12/08 16:09:04;;;;;;;;;;;17.30;67.10;;;;;;5080047;28;19912;-66
2022/12/08 16:14:15;;;;;;;;;;;17.30;67.60;;;;;;5095364;28;19981;-65
2022/12/08 16:16:43;;;;;;;;;;;17.20;67.40;;;;;;5097518;28;19920;-65
2022/12/08 16:19:13;;;;;;;;;;;17.20;67.60;;;;;;5099611;28;19928;-65
2022/12/08 16:21:40;;;;;;;;;;;17.20;66.30;;;;;;5099404;28;19957;-65
2022/12/08 16:24:06;;;;;;;;;;;17.30;65.60;;;;;;5102222;28;19908;-65
2022/12/08 16:26:33;;;;;;;;;;;17.30;65.90;;;;;;5097857;28;19920;-65
2022/12/08 16:29:00;;;;;;;;;;;17.30;66.40;;;;;;5081803;28;19914;-66
2022/12/08 16:31:26;;;;;;;;;;;17.30;66.10;;;;;;5097662;28;19916;-65
2022/12/08 16:33:53;;;;;;;;;;;17.30;65.70;;;;;;5095279;28;20003;-65
2022/12/08 16:36:19;;;;;;;;;;;17.30;64.90;;;;;;5096952;28;19916;-65
2022/12/08 16:38:46;;;;;;;;;;;17.30;62.60;;;;;;5102283;28;20349;-65
2022/12/08 16:44:01;;;;;;;;;;;17.30;61.40;;;;;;5104779;28;20323;-65
2022/12/08 16:46:28;;;;;;;;;;;17.30;61.30;;;;;;5092014;28;19951;-65
2022/12/08 16:48:58;;;;;;;;;;;17.30;58.80;;;;;;5092753;28;19915;-65
2022/12/08 16:51:24;;;;;;;;;;;17.30;57.60;;;;;;5087133;28;19995;-65
2022/12/08 16:53:51;;;;;;;;;;;17.30;58.10;;;;;;5121315;28;19916;-65
2022/12/08 16:56:18;;;;;;;;;;;17.40;58.50;;;;;;5091966;28;19916;-65
2022/12/08 16:58:45;;;;;;;;;;;17.30;58.50;;;;;;5107023;28;20433;-65
2022/12/08 17:01:12;;;;;;;;;;;17.40;58.50;;;;;;5092993;28;19950;-65
2022/12/08 17:03:40;;;;;;;;;;;17.50;59.70;;;;;;5091339;28;19954;-65
2022/12/08 17:06:10;;;;;;;;;;;17.50;62.50;;;;;;5093970;28;19915;-65
2022/12/08 17:08:37;;;;;;;;;;;17.40;60.50;;;;;;5109275;28;19977;-65
2022/12/08 17:11:07;;;;;;;;;;;17.30;60.00;;;;;;5093047;28;19934;-65
2022/12/08 17:13:37;;;;;;;;;;;17.40;60.50;;;;;;5090669;28;20180;-65
2022/12/08 17:16:07;;;;;;;;;;;17.40;59.80;;;;;;5073349;28;19916;-65
2022/12/08 17:18:33;;;;;;;;;;;17.40;61.30;;;;;;5091401;28;19919;-65
2022/12/08 17:21:00;;;;;;;;;;;17.40;63.50;;;;;;5073041;28;20400;-65
2022/12/08 17:23:26;;;;;;;;;;;17.50;64.20;;;;;;5092807;28;19908;-65
2022/12/08 17:25:59;;;;;;;;;;;17.40;64.30;;;;;;5095943;28;19999;-65
2022/12/08 17:28:26;;;;;;;;;;;17.40;61.30;;;;;;5096565;28;19927;-65
2022/12/08 17:30:53;;;;;;;;;;;17.30;59.50;;;;;;5095080;28;20437;-65
2022/12/08 17:33:22;;;;;;;;;;;17.20;59.10;;;;;;5095916;28;19919;-65
2022/12/08 17:35:49;;;;;;;;;;;17.20;58.80;;;;;;5094173;28;20290;-65
2022/12/08 17:38:16;;;;;;;;;;;17.20;58.20;;;;;;5096271;28;19912;-64
2022/12/08 17:40:43;;;;;;;;;;;17.30;58.40;;;;;;5077619;28;19916;-65
2022/12/08 17:43:10;;;;;;;;;;;17.30;58.50;;;;;;5111575;27;20360;-65
2022/12/08 17:45:40;;;;;;;;;;;17.20;58.30;;;;;;5096468;28;20014;-65
2022/12/08 17:48:07;;;;;;;;;;;17.20;59.10;;;;;;5094919;28;20365;-65
2022/12/08 17:50:36;;;;;;;;;;;17.20;59.70;;;;;;5095934;28;19908;-65
2022/12/08 17:53:03;;;;;;;;;;;17.20;59.80;;;;;;5095231;28;20355;-65
2022/12/08 17:55:29;;;;;;;;;;;17.20;60.50;;;;;;5091055;28;19955;-65
2022/12/08 17:57:56;;;;;;;;;;;17.20;58.70;;;;;;5095371;28;19908;-65
2022/12/08 18:00:23;;;;;;;;;;;17.20;59.10;;;;;;5095401;28;20282;-65
2022/12/08 18:02:49;;;;;;;;;;;17.20;59.30;;;;;;5096831;28;19970;-64
2022/12/08 18:05:16;;;;;;;;;;;17.20;59.30;;;;;;5094625;28;19912;-64
2022/12/08 18:07:42;;;;;;;;;;;17.10;58.70;;;;;;5096476;28;19923;-64
2022/12/08 18:10:09;;;;;;;;;;;17.10;59.70;;;;;;5093695;28;20384;-64
2022/12/08 18:12:35;;;;;;;;;;;17.10;59.40;;;;;;5093992;28;19908;-63
2022/12/08 18:15:02;;;;;;;;;;;17.10;59.60;;;;;;5097140;28;20258;-65
2022/12/08 18:17:29;;;;;;;;;;;17.10;59.80;;;;;;5084111;28;19915;-64
2022/12/08 18:19:56;;;;;;;;;;;17.00;59.70;;;;;;5093633;28;19920;-65
2022/12/08 18:22:22;;;;;;;;;;;17.00;59.40;;;;;;5094438;28;19919;-64
2022/12/08 18:24:49;;;;;;;;;;;17.00;60.10;;;;;;5095161;28;20046;-64
2022/12/08 18:27:15;;;;;;;;;;;17.00;60.20;;;;;;5093524;28;19916;-64
2022/12/08 18:29:42;;;;;;;;;;;17.00;59.30;;;;;;5096663;28;19919;-65
2022/12/08 18:32:09;;;;;;;;;;;17.00;59.70;;;;;;5095948;28;20374;-64
2022/12/08 18:34:35;;;;;;;;;;;17.00;59.70;;;;;;5099375;28;19931;-64
2022/12/08 18:37:02;;;;;;;;;;;17.00;59.60;;;;;;5089731;28;20645;-64
2022/12/08 18:39:31;;;;;;;;;;;16.90;59.50;;;;;;5094409;28;20659;-65
2022/12/08 18:41:58;;;;;;;;;;;17.00;59.50;;;;;;5103197;28;19915;-64
2022/12/08 18:44:25;;;;;;;;;;;16.90;59.90;;;;;;5090484;28;19912;-64
2022/12/08 18:46:52;;;;;;;;;;;16.90;59.40;;;;;;5094349;28;19916;-65
2022/12/08 18:49:18;;;;;;;;;;;16.90;59.70;;;;;;5111429;28;20300;-65
2022/12/08 18:51:45;;;;;;;;;;;17.00;59.70;;;;;;5111143;28;20011;-64
2022/12/08 18:54:12;;;;;;;;;;;17.00;59.00;;;;;;5113453;28;19959;-64
2022/12/08 18:56:38;;;;;;;;;;;16.90;58.40;;;;;;5095086;28;19962;-64
2022/12/08 18:59:06;;;;;;;;;;;16.90;58.20;;;;;;5093911;28;19934;-64
2022/12/08 19:01:33;;;;;;;;;;;16.90;59.10;;;;;;5093304;28;19970;-65
2022/12/08 19:04:00;;;;;;;;;;;16.90;58.40;;;;;;5078022;28;19915;-66
2022/12/08 19:06:28;;;;;;;;;;;16.90;59.50;;;;;;5108712;28;19955;-65
2022/12/08 19:08:55;;;;;;;;;;;16.90;59.00;;;;;;5094552;28;19908;-65
2022/12/08 19:11:22;;;;;;;;;;;17.00;59.10;;;;;;5095051;28;19991;-65
2022/12/08 19:13:49;;;;;;;;;;;17.00;58.90;;;;;;5097397;28;19982;-65
2022/12/08 19:16:16;;;;;;;;;;;17.00;58.90;;;;;;5095808;28;20378;-64
2022/12/08 19:18:42;;;;;;;;;;;17.00;59.60;;;;;;5103120;28;19959;-65
2022/12/08 19:21:09;;;;;;;;;;;17.10;59.70;;;;;;5072057;28;19908;-65
2022/12/08 19:23:36;;;;;;;;;;;17.10;59.00;;;;;;5072835;28;20274;-65
2022/12/08 19:26:02;;;;;;;;;;;17.10;59.20;;;;;;5072614;28;19908;-65
2022/12/08 19:28:29;;;;;;;;;;;17.20;60.20;;;;;;5071935;28;20007;-65
2022/12/08 19:30:56;;;;;;;;;;;17.10;59.80;;;;;;5072225;28;19962;-64
2022/12/08 19:33:22;;;;;;;;;;;17.10;59.60;;;;;;5072204;28;19909;-65
2022/12/08 19:35:49;;;;;;;;;;;17.10;58.60;;;;;;5072645;28;19967;-66
2022/12/08 19:38:16;;;;;;;;;;;17.00;58.90;;;;;;5072028;28;20286;-66
2022/12/08 19:46:12;;;;;;;;;;;17.00;59.40;;;;;;5071994;28;19915;-65
2022/12/08 19:48:39;;;;;;;;;;;17.00;59.70;;;;;;5054553;28;20321;-65
2022/12/08 19:51:06;;;;;;;;;;;17.00;59.00;;;;;;5072639;28;19908;-66
2022/12/08 19:53:33;;;;;;;;;;;17.00;59.50;;;;;;5071285;28;19916;-66
2022/12/08 19:55:59;;;;;;;;;;;17.10;59.00;;;;;;5072391;28;19916;-66
2022/12/08 19:58:26;;;;;;;;;;;17.10;59.00;;;;;;5071931;28;19966;-66
2022/12/08 20:00:53;;;;;;;;;;;17.10;58.60;;;;;;5071986;28;19988;-66
2022/12/08 20:03:19;;;;;;;;;;;17.10;58.50;;;;;;5071806;28;19922;-66
2022/12/08 20:05:47;;;;;;;;;;;17.10;59.10;;;;;;5071706;28;19913;-66
2022/12/08 20:08:13;;;;;;;;;;;17.00;59.20;;;;;;5054350;28;19939;-67
2022/12/08 20:10:41;;;;;;;;;;;17.10;59.60;;;;;;5078203;28;20361;-66
2022/12/08 20:15:52;;;;;;;;;;;17.00;58.90;;;;;;5071815;28;19967;-66
2022/12/08 20:18:19;;;;;;;;;;;17.10;58.40;;;;;;5073166;28;19947;-66
2022/12/08 20:20:46;;;;;;;;;;;17.00;59.40;;;;;;5074168;28;19954;-66
2022/12/08 20:23:13;;;;;;;;;;;17.10;58.40;;;;;;5092981;28;19918;-66
2022/12/08 20:25:40;;;;;;;;;;;17.00;58.90;;;;;;5093053;28;19916;-66
2022/12/08 20:28:06;;;;;;;;;;;17.00;59.10;;;;;;5094579;28;19908;-66
2022/12/08 20:30:33;;;;;;;;;;;17.00;58.80;;;;;;5093754;28;19912;-66
2022/12/08 20:33:00;;;;;;;;;;;17.10;58.50;;;;;;5091938;28;19921;-66
2022/12/08 20:35:26;;;;;;;;;;;17.10;58.60;;;;;;5092004;28;19916;-66
2022/12/08 20:37:53;;;;;;;;;;;17.10;58.50;;;;;;5091881;28;19909;-66
2022/12/08 20:40:19;;;;;;;;;;;17.10;58.20;;;;;;5090183;28;19916;-66
2022/12/08 20:42:46;;;;;;;;;;;17.00;58.00;;;;;;5089882;28;19912;-66
2022/12/08 20:45:13;;;;;;;;;;;17.00;57.90;;;;;;5090548;28;19912;-66
2022/12/08 20:47:39;;;;;;;;;;;17.10;58.40;;;;;;5090589;28;20447;-66
2022/12/08 20:50:06;;;;;;;;;;;17.10;59.10;;;;;;5090212;28;19913;-66
2022/12/08 20:52:33;;;;;;;;;;;17.10;58.30;;;;;;5080486;28;19917;-66
2022/12/08 20:54:59;;;;;;;;;;;17.10;58.30;;;;;;5090068;28;19927;-66
2022/12/08 20:57:26;;;;;;;;;;;17.10;58.20;;;;;;5091182;28;20024;-66
2022/12/08 20:59:52;;;;;;;;;;;17.10;57.90;;;;;;5086545;28;19935;-66
2022/12/08 21:02:19;;;;;;;;;;;17.00;56.80;;;;;;5091690;28;20362;-66
2022/12/08 21:04:45;;;;;;;;;;;17.00;58.30;;;;;;5093425;28;19912;-66
2022/12/08 21:07:12;;;;;;;;;;;17.00;57.40;;;;;;5094927;28;19912;-66
2022/12/08 21:09:39;;;;;;;;;;;17.00;58.30;;;;;;5095602;28;20361;-66
2022/12/08 21:12:05;;;;;;;;;;;17.00;57.70;;;;;;5094688;28;19908;-66
2022/12/08 21:14:32;;;;;;;;;;;17.00;58.00;;;;;;5095206;28;19916;-66
2022/12/08 21:16:59;;;;;;;;;;;17.00;56.90;;;;;;5095350;28;19991;-66
2022/12/08 21:19:25;;;;;;;;;;;17.10;57.90;;;;;;5094594;28;20362;-66
2022/12/08 21:21:52;;;;;;;;;;;17.10;56.50;;;;;;5095722;28;19916;-66
2022/12/08 21:24:19;;;;;;;;;;;17.00;57.20;;;;;;5092229;28;19966;-66
2022/12/08 21:26:46;;;;;;;;;;;17.00;56.00;;;;;;5093792;28;19908;-65
2022/12/08 21:29:12;;;;;;;;;;;17.00;58.30;;;;;;5095255;28;19909;-67
2022/12/08 21:31:39;;;;;;;;;;;17.00;57.80;;;;;;5095225;28;19943;-66
2022/12/08 21:34:05;;;;;;;;;;;17.00;58.00;;;;;;5091468;28;19959;-66
2022/12/08 21:36:32;;;;;;;;;;;17.10;57.30;;;;;;5094750;28;19995;-66
2022/12/08 21:39:03;;;;;;;;;;;17.10;57.70;;;;;;5094820;28;20045;-66
2022/12/08 21:44:14;;;;;;;;;;;17.20;57.00;;;;;;5094245;28;20343;-66
2022/12/08 21:46:41;;;;;;;;;;;17.20;56.40;;;;;;5090357;28;19986;-67
2022/12/08 21:49:08;;;;;;;;;;;17.20;57.40;;;;;;5110422;28;19908;-66
2022/12/08 21:51:36;;;;;;;;;;;17.20;56.80;;;;;;5094919;28;19916;-66
2022/12/08 21:54:03;;;;;;;;;;;17.30;57.90;;;;;;5098749;28;19919;-67
2022/12/08 21:56:30;;;;;;;;;;;17.20;56.40;;;;;;5110295;28;19908;-67
2022/12/08 21:58:56;;;;;;;;;;;17.20;56.50;;;;;;5099773;28;19919;-67
2022/12/08 22:01:23;;;;;;;;;;;17.20;56.80;;;;;;5102291;28;19996;-67
2022/12/08 22:03:50;;;;;;;;;;;17.20;57.10;;;;;;5100876;28;20323;-67
2022/12/08 22:06:16;;;;;;;;;;;17.40;56.60;;;;;;5098510;28;19945;-67
2022/12/08 22:08:43;;;;;;;;;;;17.60;57.00;;;;;;5104671;28;19920;-67
2022/12/08 22:11:10;;;;;;;;;;;17.70;57.80;;;;;;5097581;28;20390;-67
2022/12/08 22:13:37;;;;;;;;;;;17.70;56.70;;;;;;5081122;28;20010;-66
2022/12/08 22:16:04;;;;;;;;;;;17.80;57.30;;;;;;5096645;28;20286;-66
2022/12/08 22:18:31;;;;;;;;;;;17.80;55.80;;;;;;5090209;28;19912;-66
2022/12/08 22:20:58;;;;;;;;;;;17.70;56.30;;;;;;5068065;28;19919;-67
2022/12/08 22:23:24;;;;;;;;;;;17.70;56.60;;;;;;5092852;28;19912;-67
2022/12/08 22:26:00;;;;;;;;;;;17.70;56.00;;;;;;5087262;28;19962;-67
2022/12/08 22:28:29;;;;;;;;;;;17.70;56.30;;;;;;5072309;28;19919;-67
2022/12/08 22:30:55;;;;;;;;;;;17.90;56.80;;;;;;5092643;28;19912;-67
2022/12/08 22:33:22;;;;;;;;;;;18.20;55.60;;;;;;5093884;28;19939;-67
2022/12/08 22:35:56;;;;;;;;;;;18.30;54.40;;;;;;5093986;28;19966;-67
2022/12/08 22:38:22;;;;;;;;;;;18.20;53.80;;;;;;5076117;28;19908;-67
2022/12/08 22:40:49;;;;;;;;;;;18.20;54.70;;;;;;5093966;28;19978;-67
2022/12/08 22:43:16;;;;;;;;;;;18.30;54.10;;;;;;5093881;28;19915;-67
2022/12/08 22:45:42;;;;;;;;;;;18.40;53.70;;;;;;5075841;28;19931;-67
2022/12/08 22:48:09;;;;;;;;;;;18.20;53.80;;;;;;5093951;28;19919;-67
2022/12/08 22:50:36;;;;;;;;;;;18.10;53.90;;;;;;5093759;28;20349;-67
2022/12/08 22:53:02;;;;;;;;;;;18.00;54.50;;;;;;5094168;28;19914;-67
2022/12/08 22:55:29;;;;;;;;;;;18.00;54.80;;;;;;5093532;28;19928;-66
2022/12/08 22:57:55;;;;;;;;;;;17.90;54.50;;;;;;5093945;28;20053;-67
2022/12/08 23:00:22;;;;;;;;;;;17.90;55.00;;;;;;5093133;28;19916;-67
2022/12/08 23:02:49;;;;;;;;;;;17.80;54.60;;;;;;5093895;28;19954;-67
2022/12/08 23:05:15;;;;;;;;;;;17.80;55.00;;;;;;5093712;28;19980;-67
2022/12/08 23:07:42;;;;;;;;;;;17.80;55.20;;;;;;5092077;28;19935;-67
2022/12/08 23:10:09;;;;;;;;;;;17.80;55.70;;;;;;5093112;28;19943;-67
2022/12/08 23:12:35;;;;;;;;;;;17.80;55.70;;;;;;5093310;28;20266;-67
